Time;durP1;ratioP1;P1;durP2;ratioP2;P2;SDS_P1;SDS_P2;PMS_P1;PMS_P2;Temp;Humidity;BMP_temperature;BMP_pressure;BME280_temperature;BME280_humidity;BME280_pressure;Samples;Min_cycle;Max_cycle;Signal;HPM_P1;HPM_P2
2021/10/20 00:00:40;;;;;;;1.77;1.67;;;15.30;99.90;;;;;;6080555;23;20376;-86
2021/10/20 00:03:24;;;;;;;1.38;1.38;;;15.30;99.90;;;;;;6082985;23;20356;-90
2021/10/20 00:06:08;;;;;;;2.13;1.92;;;15.30;99.90;;;;;;6103100;23;20426;-88
2021/10/20 00:08:53;;;;;;;2.70;1.60;;;15.30;99.90;;;;;;6121801;23;20420;-86
2021/10/20 00:11:37;;;;;;;1.90;1.80;;;15.30;99.90;;;;;;6061876;23;20383;-91
2021/10/20 00:14:22;;;;;;;1.92;1.83;;;15.30;99.90;;;;;;6101618;23;20488;-89
2021/10/20 00:17:06;;;;;;;2.22;2.05;;;15.30;99.90;;;;;;6062646;23;20445;-88
2021/10/20 00:19:56;;;;;;;2.13;2.00;;;15.30;99.90;;;;;;6061289;23;20371;-90
2021/10/20 00:22:40;;;;;;;1.73;1.63;;;15.30;99.90;;;;;;6084519;23;20424;-90
2021/10/20 00:25:24;;;;;;;2.05;1.95;;;15.30;99.90;;;;;;6061155;23;20392;-87
2021/10/20 00:28:08;;;;;;;2.22;2.10;;;15.20;99.90;;;;;;6103504;23;20383;-89
2021/10/20 00:30:53;;;;;;;2.35;2.15;;;15.20;99.90;;;;;;6061902;23;20364;-89
2021/10/20 00:33:37;;;;;;;2.30;2.10;;;15.10;99.90;;;;;;6062953;23;20371;-88
2021/10/20 00:36:22;;;;;;;1.92;1.83;;;15.10;99.90;;;;;;6082735;23;20383;-90
2021/10/20 00:39:06;;;;;;;2.60;1.80;;;15.10;99.90;;;;;;6101962;23;20372;-89
2021/10/20 00:41:52;;;;;;;1.75;1.65;;;15.10;99.90;;;;;;6104768;23;20375;-90
2021/10/20 00:44:54;;;;;;;2.53;2.20;;;15.10;99.90;;;;;;6101713;23;20388;-90
2021/10/20 00:47:38;;;;;;;1.88;1.77;;;15.10;99.90;;;;;;6084784;23;20387;-91
2021/10/20 00:50:22;;;;;;;2.40;1.95;;;15.20;99.90;;;;;;6100897;23;20448;-89
2021/10/20 00:53:07;;;;;;;2.30;2.00;;;15.10;99.90;;;;;;6103148;23;20356;-87
2021/10/20 00:55:51;;;;;;;1.73;1.63;;;15.10;99.90;;;;;;6101729;23;20375;-90
2021/10/20 00:58:37;;;;;;;2.15;2.05;;;15.10;99.90;;;;;;6081553;23;20376;-90
2021/10/20 01:01:21;;;;;;;2.00;1.90;;;15.10;99.90;;;;;;6102355;23;20388;-87
2021/10/20 01:04:06;;;;;;;2.00;1.90;;;15.10;99.90;;;;;;6101391;23;20429;-87
2021/10/20 01:06:51;;;;;;;1.85;1.70;;;15.10;99.90;;;;;;6082294;23;20372;-89
2021/10/20 01:09:37;;;;;;;1.77;1.67;;;15.10;99.90;;;;;;6069298;23;20376;-91
2021/10/20 01:12:21;;;;;;;2.20;2.03;;;15.10;99.90;;;;;;6061627;23;20395;-89
2021/10/20 01:15:27;;;;;;;2.40;2.20;;;15.10;99.90;;;;;;6059808;23;20359;-91
2021/10/20 01:18:11;;;;;;;1.95;1.85;;;15.10;99.90;;;;;;6105758;23;20400;-89
2021/10/20 01:20:57;;;;;;;2.50;2.30;;;15.00;99.90;;;;;;6059362;23;20685;-87
2021/10/20 01:23:42;;;;;;;2.05;1.90;;;14.90;99.90;;;;;;6079719;23;20400;-89
2021/10/20 01:26:26;;;;;;;2.50;2.17;;;14.90;99.90;;;;;;6056981;23;20400;-87
2021/10/20 01:29:11;;;;;;;2.60;2.40;;;14.80;99.90;;;;;;6073662;23;20427;-87
2021/10/20 01:31:57;;;;;;;2.00;1.90;;;14.70;99.90;;;;;;6099448;23;20379;-89
2021/10/20 01:34:41;;;;;;;2.40;2.20;;;14.60;99.90;;;;;;6097131;23;20387;-89
2021/10/20 01:37:28;;;;;;;2.30;2.10;;;14.50;99.90;;;;;;6101558;23;20424;-86
2021/10/20 01:40:12;;;;;;;2.40;2.20;;;14.50;99.90;;;;;;6080903;23;20375;-89
2021/10/20 01:42:56;;;;;;;3.53;2.35;;;14.40;99.90;;;;;;6082862;23;20381;-89
2021/10/20 01:45:41;;;;;;;2.25;2.05;;;14.30;99.90;;;;;;6059715;23;20376;-89
2021/10/20 01:48:26;;;;;;;2.70;2.15;;;14.30;99.90;;;;;;6082354;23;20380;-88
2021/10/20 01:51:10;;;;;;;2.42;2.22;;;14.30;99.90;;;;;;6061178;23;20387;-88
2021/10/20 01:53:55;;;;;;;2.10;2.00;;;14.20;99.90;;;;;;6079623;23;20400;-86
2021/10/20 01:56:39;;;;;;;2.50;2.30;;;14.10;99.90;;;;;;6100018;23;20449;-87
2021/10/20 01:59:24;;;;;;;1.90;1.80;;;14.10;99.90;;;;;;6078804;23;20845;-90
2021/10/20 02:02:18;;;;;;;2.55;2.35;;;14.00;99.90;;;;;;6061748;23;20359;-86
2021/10/20 02:05:05;;;;;;;2.50;2.30;;;14.00;99.90;;;;;;6062841;23;20392;-87
2021/10/20 02:07:49;;;;;;;2.30;2.10;;;13.90;99.90;;;;;;6062801;23;20359;-87
2021/10/20 02:10:33;;;;;;;2.20;2.10;;;13.90;99.90;;;;;;6080779;23;20427;-89
2021/10/20 02:13:17;;;;;;;2.00;1.90;;;13.80;99.90;;;;;;6063807;23;20359;-87
2021/10/20 02:16:03;;;;;;;1.73;1.63;;;13.80;99.90;;;;;;6082391;23;20379;-89
2021/10/20 02:18:47;;;;;;;2.47;2.27;;;13.80;99.90;;;;;;6101569;23;20483;-90
2021/10/20 02:21:32;;;;;;;2.35;2.15;;;13.70;99.90;;;;;;6083315;23;20379;-87
2021/10/20 02:24:16;;;;;;;2.45;2.00;;;13.70;99.90;;;;;;6060265;23;20392;-88
2021/10/20 02:27:00;;;;;;;2.10;2.00;;;13.70;99.90;;;;;;6083108;23;20694;-88
2021/10/20 02:29:45;;;;;;;2.10;2.00;;;13.60;99.90;;;;;;6060908;23;20364;-88
2021/10/20 02:32:29;;;;;;;2.13;2.00;;;13.60;99.90;;;;;;6064268;23;20405;-86
2021/10/20 02:35:14;;;;;;;2.10;1.90;;;13.60;99.90;;;;;;6104088;23;20359;-90
2021/10/20 02:37:59;;;;;;;2.55;2.35;;;13.50;99.90;;;;;;6144447;23;20368;-88
2021/10/20 02:40:43;;;;;;;2.28;2.08;;;13.50;99.90;;;;;;6103939;23;20367;-90
2021/10/20 02:43:28;;;;;;;2.47;2.28;;;13.50;99.90;;;;;;6104229;23;20380;-88
2021/10/20 02:46:12;;;;;;;2.50;2.30;;;13.40;99.90;;;;;;6063038;23;20364;-88
2021/10/20 02:48:56;;;;;;;2.38;2.17;;;13.50;99.90;;;;;;6061224;23;20368;-89
2021/10/20 02:51:41;;;;;;;2.95;2.40;;;13.50;99.90;;;;;;6064290;23;20388;-91
2021/10/20 02:54:25;;;;;;;2.47;2.28;;;13.50;99.90;;;;;;6062852;23;20367;-92
2021/10/20 02:57:10;;;;;;;2.50;2.30;;;13.50;99.90;;;;;;6061832;23;20375;-90
2021/10/20 02:59:54;;;;;;;2.58;2.20;;;13.40;99.90;;;;;;6063211;23;20400;-89
2021/10/20 03:02:39;;;;;;;2.58;2.38;;;13.40;99.90;;;;;;6083517;23;20360;-90
2021/10/20 03:05:23;;;;;;;2.50;2.30;;;13.40;99.90;;;;;;6082216;23;20384;-89
2021/10/20 03:08:07;;;;;;;2.33;2.13;;;13.40;99.90;;;;;;6063317;23;20376;-89
2021/10/20 03:10:52;;;;;;;2.63;2.42;;;13.30;99.90;;;;;;6083683;23;20364;-91
2021/10/20 03:13:37;;;;;;;2.38;2.17;;;13.30;99.90;;;;;;6083596;23;20415;-88
2021/10/20 03:16:21;;;;;;;3.00;2.67;;;13.30;99.90;;;;;;6083586;23;20409;-90
2021/10/20 03:19:06;;;;;;;1.95;1.85;;;13.30;99.90;;;;;;6123362;23;20383;-89
2021/10/20 03:21:50;;;;;;;2.20;2.00;;;13.20;99.90;;;;;;6062773;23;20404;-89
2021/10/20 03:24:34;;;;;;;2.13;2.00;;;13.20;99.90;;;;;;6057924;23;20404;-88
2021/10/20 03:27:19;;;;;;;2.53;2.33;;;13.20;99.90;;;;;;6083300;23;20363;-90
2021/10/20 03:30:04;;;;;;;2.20;2.00;;;13.10;99.90;;;;;;6084007;23;20364;-88
2021/10/20 03:32:49;;;;;;;1.90;1.80;;;13.10;99.90;;;;;;6064003;23;20376;-89
2021/10/20 03:35:33;;;;;;;2.08;1.83;;;13.10;99.90;;;;;;6102607;23;20384;-87
2021/10/20 03:38:17;;;;;;;2.33;2.13;;;13.10;99.90;;;;;;6083339;23;20388;-88
2021/10/20 03:41:02;;;;;;;2.15;2.05;;;13.00;99.90;;;;;;6063694;23;20392;-88
2021/10/20 03:43:46;;;;;;;2.45;2.25;;;13.00;99.90;;;;;;6064492;23;20433;-89
2021/10/20 03:46:31;;;;;;;2.45;2.25;;;12.90;99.90;;;;;;6106589;23;20354;-90
2021/10/20 03:49:15;;;;;;;2.20;2.00;;;13.00;99.90;;;;;;6084591;23;20379;-89
2021/10/20 03:52:00;;;;;;;2.15;1.95;;;12.90;99.90;;;;;;6065964;23;20392;-88
2021/10/20 03:54:44;;;;;;;2.17;2.08;;;12.90;99.90;;;;;;6062733;23;20380;-89
2021/10/20 03:57:35;;;;;;;2.88;2.10;;;12.90;99.90;;;;;;6086008;23;20383;-87
2021/10/20 04:00:20;;;;;;;2.28;2.08;;;12.80;99.90;;;;;;6064371;23;20391;-87
2021/10/20 04:03:04;;;;;;;1.90;1.80;;;12.80;99.90;;;;;;6065752;23;20401;-89
2021/10/20 04:05:49;;;;;;;1.48;1.40;;;12.80;99.90;;;;;;6064862;23;20364;-91
2021/10/20 04:08:33;;;;;;;2.05;1.88;;;12.70;99.90;;;;;;6125927;23;20376;-87
2021/10/20 04:11:18;;;;;;;1.77;1.67;;;12.70;99.90;;;;;;6106527;23;20376;-89
2021/10/20 04:14:02;;;;;;;2.00;1.80;;;12.70;99.90;;;;;;6063452;23;20380;-88
2021/10/20 04:16:47;;;;;;;1.90;1.80;;;12.70;99.90;;;;;;6084830;23;20383;-89
2021/10/20 04:19:31;;;;;;;2.15;1.95;;;12.60;99.90;;;;;;6104849;23;20368;-88
2021/10/20 04:22:15;;;;;;;2.42;2.03;;;12.50;99.90;;;;;;6085713;23;20348;-89
2021/10/20 04:25:00;;;;;;;4.22;2.40;;;12.40;99.90;;;;;;6064388;23;20356;-88
2021/10/20 04:27:45;;;;;;;2.22;2.03;;;12.40;99.90;;;;;;6064016;23;20400;-91
2021/10/20 04:30:29;;;;;;;2.60;2.40;;;12.40;99.90;;;;;;6083868;23;20364;-90
2021/10/20 04:33:14;;;;;;;2.25;2.15;;;12.40;99.90;;;;;;6084051;23;20352;-87
2021/10/20 04:35:58;;;;;;;2.10;2.00;;;12.40;99.90;;;;;;6064950;23;20379;-90
2021/10/20 04:38:43;;;;;;;3.03;2.13;;;12.40;99.90;;;;;;6083189;23;20388;-88
2021/10/20 04:41:27;;;;;;;2.40;2.13;;;12.50;99.90;;;;;;6104725;23;20436;-86
2021/10/20 04:44:12;;;;;;;1.70;1.60;;;12.50;99.90;;;;;;6082768;23;20613;-90
2021/10/20 04:46:56;;;;;;;2.30;2.08;;;12.40;99.90;;;;;;6064895;23;20375;-88
2021/10/20 04:49:41;;;;;;;2.87;1.80;;;12.40;99.90;;;;;;6083279;23;20393;-87
2021/10/20 04:52:26;;;;;;;2.13;1.95;;;12.40;99.90;;;;;;6082114;23;20384;-87
2021/10/20 04:55:10;;;;;;;1.77;1.67;;;12.40;99.90;;;;;;6080655;23;20364;-88
2021/10/20 04:57:54;;;;;;;2.00;1.80;;;12.30;99.90;;;;;;6083468;23;20367;-85
2021/10/20 05:00:38;;;;;;;2.00;1.85;;;12.20;99.90;;;;;;6081797;23;20393;-90
2021/10/20 05:03:23;;;;;;;1.80;1.70;;;12.20;99.90;;;;;;6063159;23;20404;-87
2021/10/20 05:06:07;;;;;;;1.95;1.85;;;12.20;99.90;;;;;;6102640;23;20359;-86
2021/10/20 05:08:52;;;;;;;2.25;2.05;;;12.30;99.90;;;;;;6063280;23;20404;-86
2021/10/20 05:11:36;;;;;;;1.60;1.50;;;12.20;99.90;;;;;;6064143;23;20352;-88
2021/10/20 05:14:22;;;;;;;1.75;1.63;;;12.30;99.90;;;;;;6103631;23;20403;-90
2021/10/20 08:35:21;;;;;;;1.60;1.50;;;16.50;99.90;;;;;;6164139;23;20363;-89
2021/10/20 08:38:05;;;;;;;2.83;1.37;;;16.60;99.90;;;;;;6111070;23;20374;-91
2021/10/20 08:40:51;;;;;;;1.48;1.38;;;16.60;99.90;;;;;;6111832;23;20362;-90
2021/10/20 08:43:36;;;;;;;1.50;1.40;;;16.80;99.90;;;;;;6114205;23;20365;-91
2021/10/20 08:46:23;;;;;;;1.90;1.42;;;16.80;99.90;;;;;;6135264;23;20378;-90
2021/10/20 08:49:07;;;;;;;2.40;1.48;;;16.80;99.90;;;;;;6112725;23;20370;-90
2021/10/20 08:51:52;;;;;;;1.27;1.20;;;16.90;99.90;;;;;;6113239;23;20366;-90
2021/10/20 08:54:36;;;;;;;3.40;1.40;;;17.00;99.90;;;;;;6133130;23;20378;-91
2021/10/20 08:57:21;;;;;;;1.25;1.20;;;17.10;99.90;;;;;;6113454;23;20397;-89
2021/10/20 09:00:06;;;;;;;1.20;1.15;;;17.10;99.90;;;;;;6113298;23;20402;-91
2021/10/20 09:02:54;;;;;;;1.40;1.30;;;17.30;99.90;;;;;;6093393;23;20370;-90
2021/10/20 09:05:38;;;;;;;1.30;1.30;;;17.30;99.90;;;;;;6094197;23;20366;-91
2021/10/20 09:08:22;;;;;;;1.67;1.38;;;17.40;99.90;;;;;;6113435;23;20382;-90
2021/10/20 09:11:40;;;;;;;1.33;1.23;;;17.40;99.90;;;;;;6113406;23;20382;-90
2021/10/20 09:14:24;;;;;;;1.33;1.23;;;17.70;99.90;;;;;;6136894;23;20440;-90
2021/10/20 09:17:08;;;;;;;2.15;1.45;;;17.80;99.90;;;;;;6154268;23;20405;-91
2021/10/20 09:19:58;;;;;;;1.60;1.40;;;18.00;99.90;;;;;;6112177;23;20403;-90
2021/10/20 09:23:00;;;;;;;1.50;1.40;;;18.00;99.90;;;;;;6095029;23;20402;-91
2021/10/20 09:25:48;;;;;;;1.70;1.50;;;18.40;99.90;;;;;;6113190;23;20406;-91
2021/10/20 09:28:34;;;;;;;3.07;1.40;;;18.40;99.90;;;;;;6113277;23;20362;-91
2021/10/20 09:31:20;;;;;;;1.15;1.15;;;18.40;99.90;;;;;;6133873;23;20393;-91
2021/10/20 09:34:05;;;;;;;1.52;1.40;;;18.50;99.90;;;;;;6092895;23;20366;-90
2021/10/20 09:36:51;;;;;;;1.40;1.30;;;18.70;99.90;;;;;;6114410;23;20374;-90
2021/10/20 09:39:37;;;;;;;2.38;2.17;;;18.60;99.90;;;;;;6111900;23;20378;-89
2021/10/20 09:42:21;;;;;;;2.00;1.80;;;18.80;99.90;;;;;;6114181;23;20362;-89
2021/10/20 09:45:06;;;;;;;1.40;1.30;;;19.00;99.90;;;;;;6112842;23;20347;-90
2021/10/20 09:47:52;;;;;;;1.60;1.50;;;19.00;99.90;;;;;;6114854;23;20373;-90
2021/10/20 09:51:03;;;;;;;1.40;1.30;;;19.30;99.90;;;;;;6113170;23;20366;-91
2021/10/20 09:53:49;;;;;;;1.25;1.25;;;19.30;99.90;;;;;;6133639;23;20470;-90
2021/10/20 09:56:36;;;;;;;1.20;1.20;;;19.30;99.90;;;;;;6095102;23;20438;-90
2021/10/20 09:59:20;;;;;;;1.00;1.00;;;19.40;99.90;;;;;;6094063;23;20407;-90
2021/10/20 10:02:04;;;;;;;1.60;1.50;;;19.40;99.90;;;;;;6113908;23;20524;-90
2021/10/20 10:04:49;;;;;;;2.00;1.50;;;19.50;99.90;;;;;;6113079;23;20362;-91
2021/10/20 10:07:33;;;;;;;1.50;1.40;;;19.60;99.90;;;;;;6114285;23;20378;-90
2021/10/20 10:10:18;;;;;;;1.17;1.17;;;19.70;99.90;;;;;;6114548;23;20377;-91
2021/10/20 10:13:05;;;;;;;1.38;1.27;;;19.90;99.90;;;;;;6114439;23;20370;-90
2021/10/20 10:15:49;;;;;;;1.50;1.40;;;20.10;99.90;;;;;;6133116;23;20362;-90
2021/10/20 10:18:38;;;;;;;1.50;1.40;;;20.10;99.90;;;;;;6113189;23;20370;-91
2021/10/20 10:21:29;;;;;;;1.38;1.27;;;20.10;99.90;;;;;;6113488;23;20381;-89
2021/10/20 10:24:17;;;;;;;1.35;1.27;;;20.20;99.90;;;;;;6112494;23;20366;-92
2021/10/20 10:27:07;;;;;;;1.60;1.50;;;20.20;99.90;;;;;;6114070;23;20447;-90
2021/10/20 10:29:54;;;;;;;2.55;1.38;;;20.20;99.90;;;;;;6092898;23;20491;-90
2021/10/20 10:34:24;;;;;;;1.60;1.50;;;20.40;99.90;;;;;;6138902;23;25214;-91
2021/10/20 10:37:08;;;;;;;1.70;1.55;;;20.40;99.90;;;;;;6106772;23;20396;-93
2021/10/20 10:39:53;;;;;;;1.27;1.17;;;20.50;99.90;;;;;;6125137;23;20378;-90
2021/10/20 10:42:38;;;;;;;1.90;1.10;;;20.60;99.90;;;;;;6085433;23;20404;-91
2021/10/20 10:45:23;;;;;;;1.30;1.20;;;20.50;99.90;;;;;;6084724;23;20356;-92
2021/10/20 10:48:08;;;;;;;1.10;1.10;;;20.50;99.90;;;;;;6084642;23;20348;-92
2021/10/20 10:50:53;;;;;;;1.10;1.10;;;20.70;99.90;;;;;;6125860;23;20364;-93
2021/10/20 10:53:38;;;;;;;1.20;1.10;;;20.70;99.90;;;;;;6084164;23;20392;-92
2021/10/20 10:56:23;;;;;;;1.30;1.20;;;20.80;99.90;;;;;;6126484;23;20416;-93
2021/10/20 10:59:09;;;;;;;1.42;1.33;;;20.90;99.90;;;;;;6104761;23;20578;-92
2021/10/20 11:01:57;;;;;;;1.08;1.08;;;21.00;99.90;;;;;;6126645;23;20383;-93
2021/10/20 11:04:42;;;;;;;1.40;1.00;;;21.10;99.90;;;;;;6105551;23;20371;-92
2021/10/20 11:07:27;;;;;;;1.55;1.45;;;21.20;99.90;;;;;;6125830;23;20484;-91
2021/10/20 11:10:11;;;;;;;2.10;1.20;;;21.10;99.90;;;;;;6084947;23;20432;-93
2021/10/20 11:12:56;;;;;;;1.20;1.20;;;21.10;99.90;;;;;;6064641;23;20364;-94
2021/10/20 11:15:41;;;;;;;1.38;1.27;;;21.00;99.90;;;;;;6104586;23;20445;-93
2021/10/20 11:18:26;;;;;;;1.67;1.40;;;21.10;99.90;;;;;;6065548;23;20404;-92
2021/10/20 11:21:11;;;;;;;2.17;1.40;;;21.10;99.90;;;;;;6105996;23;20360;-92
2021/10/20 11:23:55;;;;;;;1.38;1.27;;;21.00;99.90;;;;;;6126628;23;20524;-92
2021/10/20 11:26:39;;;;;;;1.73;1.30;;;21.10;99.90;;;;;;6085347;23;20465;-92
2021/10/20 11:29:24;;;;;;;1.13;1.13;;;21.10;99.90;;;;;;6125171;23;20375;-94
2021/10/20 11:32:11;;;;;;;1.30;1.20;;;21.00;99.90;;;;;;6085057;23;20392;-94
2021/10/20 11:34:55;;;;;;;1.20;1.20;;;21.00;99.90;;;;;;6084520;23;20367;-93
2021/10/20 11:37:39;;;;;;;1.10;1.10;;;21.10;99.90;;;;;;6083732;23;20384;-92
2021/10/20 11:40:25;;;;;;;1.17;1.07;;;20.90;99.90;;;;;;6122809;23;20432;-91
2021/10/20 11:43:33;;;;;;;1.40;1.30;;;20.90;99.90;;;;;;6103592;23;20392;-93
2021/10/20 11:46:19;;;;;;;1.30;1.20;;;21.10;99.90;;;;;;6112036;23;20383;-92
2021/10/20 11:49:03;;;;;;;1.10;1.10;;;21.20;99.90;;;;;;6124251;23;20356;-93
2021/10/20 11:51:47;;;;;;;1.10;1.10;;;21.10;99.90;;;;;;6124673;23;20368;-92
2021/10/20 11:54:32;;;;;;;1.20;1.10;;;21.10;99.90;;;;;;6103535;23;20388;-92
2021/10/20 11:57:17;;;;;;;1.50;1.20;;;20.90;99.90;;;;;;6125323;23;20384;-93
2021/10/20 12:00:03;;;;;;;1.10;1.00;;;21.00;99.90;;;;;;6083436;23;20376;-92
2021/10/20 12:02:51;;;;;;;1.10;1.10;;;21.00;99.90;;;;;;6106369;23;20368;-92
2021/10/20 12:05:36;;;;;;;1.33;1.00;;;21.00;99.90;;;;;;6084706;23;20396;-92
2021/10/20 12:08:21;;;;;;;1.20;1.10;;;21.00;99.90;;;;;;6106169;23;20392;-92
2021/10/20 12:11:05;;;;;;;1.20;1.10;;;20.90;99.90;;;;;;6106168;23;20365;-92
2021/10/20 12:13:50;;;;;;;1.20;1.10;;;20.90;99.90;;;;;;6126608;23;20360;-92
2021/10/20 12:16:35;;;;;;;1.10;1.10;;;20.80;99.90;;;;;;6086524;23;20372;-91
2021/10/20 12:19:21;;;;;;;1.00;1.00;;;20.80;99.90;;;;;;6125850;23;20413;-92
2021/10/20 12:22:07;;;;;;;1.27;1.20;;;20.80;99.90;;;;;;6086855;23;20384;-93
2021/10/20 12:24:52;;;;;;;1.33;1.23;;;20.70;99.90;;;;;;6126620;23;20380;-90
2021/10/20 12:27:40;;;;;;;1.30;1.20;;;20.70;99.90;;;;;;6126403;23;20432;-93
2021/10/20 12:30:25;;;;;;;1.42;1.33;;;20.70;99.90;;;;;;6085555;23;20380;-91
2021/10/20 12:33:12;;;;;;;1.70;1.45;;;20.70;99.90;;;;;;6086591;23;20360;-91
2021/10/20 12:35:56;;;;;;;1.63;1.30;;;20.70;99.90;;;;;;6126507;23;20412;-91
2021/10/20 12:38:42;;;;;;;2.25;1.25;;;20.60;99.90;;;;;;6083293;23;20412;-91
2021/10/20 12:41:28;;;;;;;1.45;1.35;;;20.70;99.90;;;;;;6107032;23;20448;-93
2021/10/20 12:44:12;;;;;;;1.23;1.13;;;20.50;99.90;;;;;;6112025;23;20403;-93
2021/10/20 12:46:56;;;;;;;1.55;1.45;;;20.60;99.90;;;;;;6086209;23;20371;-92
2021/10/20 12:49:41;;;;;;;1.63;1.30;;;20.50;99.90;;;;;;6084953;23;20468;-95
2021/10/20 12:52:25;;;;;;;1.58;1.48;;;20.50;99.90;;;;;;6086377;23;20396;-91
2021/10/20 12:55:11;;;;;;;1.40;1.30;;;20.50;99.90;;;;;;6085695;23;20688;-92
2021/10/20 12:57:58;;;;;;;1.42;1.33;;;20.60;99.90;;;;;;6085870;23;20596;-90
2021/10/20 13:00:43;;;;;;;1.37;1.30;;;20.60;99.90;;;;;;6085741;23;20375;-92
2021/10/20 13:03:31;;;;;;;1.30;1.25;;;20.50;99.90;;;;;;6085764;23;20385;-91
2021/10/20 13:06:17;;;;;;;1.50;1.40;;;20.50;99.90;;;;;;6126872;23;20395;-92
2021/10/20 13:09:01;;;;;;;1.50;1.40;;;20.40;99.90;;;;;;6083834;23;20507;-91
2021/10/20 13:11:47;;;;;;;1.17;1.15;;;20.50;99.90;;;;;;6086490;23;20372;-92
2021/10/20 13:14:31;;;;;;;1.38;1.30;;;20.40;99.90;;;;;;6086203;23;20404;-92
2021/10/20 13:17:15;;;;;;;1.70;1.60;;;20.40;99.90;;;;;;6107009;23;20593;-91
2021/10/20 13:20:00;;;;;;;1.70;1.60;;;20.50;99.90;;;;;;6083781;23;20367;-93
2021/10/20 13:22:45;;;;;;;1.87;1.57;;;20.40;99.90;;;;;;6125413;23;20384;-94
2021/10/20 13:25:29;;;;;;;1.42;1.33;;;20.40;99.90;;;;;;6085320;23;20408;-93
2021/10/20 13:28:14;;;;;;;8.30;1.60;;;20.30;99.90;;;;;;6105819;23;20368;-93
2021/10/20 13:30:58;;;;;;;1.50;1.40;;;20.20;99.90;;;;;;6107588;23;20380;-94
2021/10/20 13:33:42;;;;;;;1.52;1.40;;;20.20;99.90;;;;;;6104307;23;20364;-92
2021/10/20 13:36:27;;;;;;;1.70;1.50;;;20.20;99.90;;;;;;6085263;23;20412;-92
2021/10/20 13:39:13;;;;;;;1.17;1.17;;;20.20;99.90;;;;;;6084809;23;20384;-91
2021/10/20 13:41:58;;;;;;;1.48;1.38;;;20.20;99.90;;;;;;6087047;23;20372;-92
2021/10/20 13:44:42;;;;;;;2.25;1.48;;;20.20;99.90;;;;;;6124754;23;20410;-91
2021/10/20 13:47:26;;;;;;;1.70;1.60;;;20.10;99.90;;;;;;6085898;23;20392;-91
2021/10/20 13:50:11;;;;;;;1.37;1.27;;;20.10;99.90;;;;;;6105178;23;20388;-91
2021/10/20 13:52:55;;;;;;;3.42;1.65;;;20.10;99.90;;;;;;6085621;23;20348;-91
2021/10/20 13:55:39;;;;;;;1.67;1.58;;;20.00;99.90;;;;;;6125784;23;20385;-92
2021/10/20 13:58:26;;;;;;;5.63;1.70;;;20.00;99.90;;;;;;6084399;23;20436;-91
2021/10/20 14:01:10;;;;;;;1.67;1.57;;;19.90;99.90;;;;;;6122946;23;20383;-89
2021/10/20 14:03:55;;;;;;;2.08;1.88;;;20.00;99.90;;;;;;6068386;23;20427;-90
2021/10/20 14:06:39;;;;;;;1.40;1.30;;;20.00;99.90;;;;;;6093036;23;20368;-88
2021/10/20 14:09:24;;;;;;;1.67;1.58;;;20.00;99.90;;;;;;6057411;23;20435;-87
2021/10/20 14:12:09;;;;;;;1.63;1.52;;;20.00;99.90;;;;;;6072042;23;20380;-85
2021/10/20 14:14:53;;;;;;;1.77;1.67;;;19.90;99.90;;;;;;6069911;23;20392;-85
2021/10/20 14:17:37;;;;;;;3.50;2.40;;;19.90;99.90;;;;;;6133877;23;20426;-89
2021/10/20 14:20:22;;;;;;;2.50;1.70;;;19.80;99.90;;;;;;6089860;23;20726;-87
2021/10/20 14:23:06;;;;;;;2.67;1.70;;;19.80;99.90;;;;;;6091981;23;20382;-88
2021/10/20 14:25:50;;;;;;;2.90;1.60;;;19.70;99.90;;;;;;6070652;23;20380;-83
2021/10/20 14:28:35;;;;;;;1.58;1.48;;;19.70;99.90;;;;;;6113556;23;20441;-85
2021/10/20 14:31:19;;;;;;;1.65;1.45;;;19.60;99.90;;;;;;6091405;23;20379;-88
2021/10/20 14:34:08;;;;;;;1.85;1.50;;;19.60;99.90;;;;;;6088567;23;20459;-87
2021/10/20 14:36:54;;;;;;;1.50;1.40;;;19.60;99.90;;;;;;6075962;23;20412;-85
2021/10/20 14:39:38;;;;;;;1.63;1.52;;;19.60;99.90;;;;;;6070791;23;20399;-82
2021/10/20 14:42:24;;;;;;;1.98;1.77;;;19.60;99.90;;;;;;6092575;23;20416;-88
2021/10/20 14:45:09;;;;;;;2.03;1.83;;;19.50;99.90;;;;;;6069174;23;20436;-89
2021/10/20 14:47:55;;;;;;;1.50;1.40;;;19.40;99.90;;;;;;6054888;23;20441;-82
2021/10/20 14:50:39;;;;;;;2.00;1.60;;;19.30;99.90;;;;;;6088654;23;20368;-85
2021/10/20 14:53:23;;;;;;;1.63;1.52;;;19.30;99.90;;;;;;6071695;23;20396;-86
2021/10/20 14:56:08;;;;;;;1.92;1.80;;;19.20;99.90;;;;;;6108240;23;20865;-90
2021/10/20 14:58:52;;;;;;;6.75;1.67;;;19.20;99.90;;;;;;6110938;23;20376;-87
2021/10/20 15:01:37;;;;;;;1.70;1.60;;;19.10;99.90;;;;;;6110835;23;20376;-85
2021/10/20 15:04:21;;;;;;;1.73;1.63;;;19.10;99.90;;;;;;6114108;23;21070;-80
2021/10/20 15:07:06;;;;;;;1.63;1.52;;;19.00;99.90;;;;;;6109797;23;20419;-80
2021/10/20 15:09:50;;;;;;;2.90;1.60;;;19.00;99.90;;;;;;6087910;23;20763;-80
2021/10/20 15:12:35;;;;;;;3.53;1.85;;;18.90;99.90;;;;;;6109108;23;20442;-81
2021/10/20 15:15:19;;;;;;;1.70;1.60;;;18.80;99.90;;;;;;6108133;23;20381;-87
2021/10/20 15:18:09;;;;;;;1.85;1.67;;;18.80;99.90;;;;;;6068969;23;20467;-84
2021/10/20 15:23:44;;;;;;;1.52;1.42;;;18.70;99.90;;;;;;6130912;23;20376;-86
2021/10/20 15:26:28;;;;;;;3.20;1.57;;;18.70;99.90;;;;;;6090010;23;20506;-81
2021/10/20 15:29:12;;;;;;;1.63;1.52;;;18.60;99.90;;;;;;6128368;23;20388;-83
2021/10/20 15:31:56;;;;;;;1.33;1.23;;;18.60;99.90;;;;;;6068521;23;21002;-84
2021/10/20 15:34:41;;;;;;;4.40;1.50;;;18.60;99.90;;;;;;6068391;23;20399;-81
2021/10/20 15:37:26;;;;;;;1.92;1.73;;;18.50;99.90;;;;;;6088749;23;20471;-81
2021/10/20 15:40:11;;;;;;;1.90;1.60;;;18.50;99.90;;;;;;6090376;23;20399;-83
2021/10/20 15:42:55;;;;;;;1.42;1.33;;;18.40;99.90;;;;;;6091435;23;20857;-81
2021/10/20 15:45:40;;;;;;;1.55;1.45;;;18.40;99.90;;;;;;6110622;23;20395;-81
2021/10/20 15:48:25;;;;;;;1.60;1.50;;;18.30;99.90;;;;;;6072528;23;20742;-83
2021/10/20 15:51:09;;;;;;;1.95;1.77;;;18.30;99.90;;;;;;6073127;23;20400;-84
2021/10/20 15:53:54;;;;;;;1.60;1.50;;;18.40;99.90;;;;;;6075209;23;20379;-85
2021/10/20 15:56:39;;;;;;;3.22;1.55;;;18.40;99.90;;;;;;6095413;23;20395;-82
2021/10/20 15:59:23;;;;;;;1.50;1.40;;;18.40;99.90;;;;;;6072012;23;20411;-83
2021/10/20 16:02:07;;;;;;;1.90;1.80;;;18.40;99.90;;;;;;6114964;23;20425;-79
2021/10/20 16:04:52;;;;;;;1.65;1.55;;;18.40;99.90;;;;;;6071070;23;20391;-84
2021/10/20 16:07:37;;;;;;;2.10;1.90;;;18.40;99.90;;;;;;6092957;23;20383;-81
2021/10/20 16:10:22;;;;;;;4.93;1.80;;;18.40;99.90;;;;;;6090223;23;20392;-84
2021/10/20 16:13:06;;;;;;;3.08;2.15;;;18.40;99.90;;;;;;6094793;23;20605;-84
2021/10/20 16:15:51;;;;;;;4.13;1.67;;;18.30;99.90;;;;;;6073217;23;20375;-83
2021/10/20 16:18:35;;;;;;;1.70;1.60;;;18.30;99.90;;;;;;6093637;23;20412;-85
2021/10/20 16:21:19;;;;;;;1.80;1.70;;;18.30;99.90;;;;;;6087548;23;20415;-85
2021/10/20 16:24:05;;;;;;;2.25;1.73;;;18.30;99.90;;;;;;6114561;23;21119;-84
2021/10/20 16:26:49;;;;;;;2.15;1.80;;;18.30;99.90;;;;;;6096487;23;20380;-84
2021/10/20 16:29:33;;;;;;;1.40;1.30;;;18.40;99.90;;;;;;6072191;23;20396;-83
2021/10/20 16:32:18;;;;;;;2.97;1.67;;;18.40;99.90;;;;;;6095257;23;20401;-81
2021/10/20 16:35:03;;;;;;;1.55;1.42;;;18.30;99.90;;;;;;6051708;23;20408;-81
2021/10/20 16:37:47;;;;;;;2.80;2.20;;;18.30;99.90;;;;;;6115087;23;20770;-81
2021/10/20 16:40:31;;;;;;;1.63;1.50;;;18.30;99.90;;;;;;6100880;23;20421;-88
2021/10/20 16:43:16;;;;;;;1.60;1.50;;;18.30;99.90;;;;;;6055695;23;20452;-88
2021/10/20 16:46:00;;;;;;;2.20;1.67;;;18.30;99.90;;;;;;6072552;23;20383;-87
2021/10/20 16:48:44;;;;;;;1.80;1.55;;;18.30;99.90;;;;;;6073635;23;20379;-87
2021/10/20 16:51:29;;;;;;;1.42;1.33;;;18.20;99.90;;;;;;6074220;23;20384;-86
2021/10/20 16:54:13;;;;;;;1.60;1.50;;;18.30;99.90;;;;;;6111916;23;20839;-88
2021/10/20 16:56:57;;;;;;;1.45;1.35;;;18.30;99.90;;;;;;6071603;23;20379;-84
2021/10/20 16:59:41;;;;;;;1.73;1.60;;;18.30;99.90;;;;;;6069266;23;20387;-89
2021/10/20 17:02:26;;;;;;;1.67;1.58;;;18.30;99.90;;;;;;6113195;23;20424;-89
2021/10/20 17:05:10;;;;;;;1.58;1.40;;;18.30;99.90;;;;;;6094162;23;20905;-86
2021/10/20 17:07:54;;;;;;;1.63;1.52;;;18.30;99.90;;;;;;6055830;23;20375;-87
2021/10/20 17:10:39;;;;;;;1.60;1.50;;;18.30;99.90;;;;;;6076291;23;20373;-88
2021/10/20 17:13:24;;;;;;;1.88;1.77;;;18.30;99.90;;;;;;6116269;23;20504;-86
2021/10/20 17:16:10;;;;;;;1.50;1.40;;;18.20;99.90;;;;;;6077197;23;20376;-91
2021/10/20 17:18:54;;;;;;;1.40;1.30;;;18.20;99.90;;;;;;6115333;23;20392;-91
2021/10/20 17:21:40;;;;;;;1.33;1.33;;;18.20;99.90;;;;;;6097814;23;20416;-84
2021/10/20 17:24:25;;;;;;;1.60;1.50;;;18.20;99.90;;;;;;6072789;23;20424;-90
2021/10/20 17:27:12;;;;;;;2.17;1.83;;;18.10;99.90;;;;;;6075383;23;20423;-88
2021/10/20 17:29:57;;;;;;;1.70;1.60;;;18.20;99.90;;;;;;6073525;23;20485;-87
2021/10/20 17:32:44;;;;;;;1.70;1.60;;;18.20;99.90;;;;;;6074357;23;20885;-87
2021/10/20 17:35:28;;;;;;;2.03;1.92;;;18.20;99.90;;;;;;6093663;23;20380;-88
2021/10/20 17:38:13;;;;;;;4.45;3.20;;;18.20;99.90;;;;;;6075944;23;20375;-89
2021/10/20 17:40:58;;;;;;;1.90;1.80;;;18.30;99.90;;;;;;6082763;23;20377;-89
2021/10/20 17:43:42;;;;;;;2.50;2.30;;;18.20;99.90;;;;;;6072496;23;20436;-86